Weather History for Glenwood, MN

Change the Weather History Date:

Wednesday, October 13, 2010

  Actual Average Record
Temperature  
Mean Temperature 50 °F -  
Max Temperature 62 °F 58 °F 80 °F (1956)
Min Temperature 39 °F 37 °F 5 °F (1999)
Degree Days  
Heating Degree Days 14    
Moisture  
Dew Point 31 °F    
Average Humidity 50    
Maximum Humidity 81    
Minimum Humidity 23    
Precipitation  
Precipitation 0.00 in - - ()
Sea Level Pressure  
Sea Level Pressure 30.23 in    
Wind  
Wind Speed 2 mph (WNW)    
Max Wind Speed 17 mph    
Max Gust Speed 24 mph    
Visibility 10 miles    
Events      
Averages and records for this station are not official NWS values.
T = Trace of Precipitation, MM = Missing Value Source: NWS Daily Summary

Daily Weather History Graph

Daily Weather History Graph

Search for Another Location

Airport:

Trip Planner

Search our weather history database for the weather conditions in past years. The results will help you decide how hot, cold, wet, or windy it might be!

Date:

Astronomy

Oct. 13, 2010 Rise Set
Actual Time 7:35 AM CDT 6:39 PM CDT
Civil Twilight 7:05 AM CDT 7:08 PM CDT
Nautical Twilight 6:30 AM CDT 7:43 PM CDT
Astronomical Twilight 5:56 AM CDT 8:17 PM CDT
Moon 2:10 PM CDT (10/13) 11:05 PM CDT (10/13)
Length of Visible Light 12h 03m
Length of Day
11h 04m
Waxing Crescent, 38% of the Moon is Illuminated
Oct 13
Waxing Crescent
Oct 14
First Quarter
Oct 22
Full
Oct 30
Last Quarter
Nov 5
New

Hourly Weather History & Observations

Time (CDT) Temp. Windchill Dew Point Humidity Pressure Visibility Wind Dir Wind Speed Gust Speed Precip Events Conditions
12:13 AM 46.4 °F - 32.0 °F 57% 30.19 in 10.0 mi Calm Calm - N/A   Clear
12:33 AM 46.4 °F - 32.0 °F 57% 30.20 in 10.0 mi Calm Calm - N/A   Clear
12:53 AM 44.6 °F - 35.6 °F 71% 30.20 in 10.0 mi Calm Calm - N/A   Clear
1:14 AM 42.8 °F - 32.0 °F 66% 30.20 in 10.0 mi Calm Calm - N/A   Clear
1:33 AM 42.8 °F - 30.2 °F 61% 30.20 in 10.0 mi Calm Calm - N/A   Clear
1:53 AM 42.8 °F - 30.2 °F 61% 30.20 in 10.0 mi Calm Calm - N/A   Clear
2:13 AM 44.6 °F - 30.2 °F 57% 30.21 in 10.0 mi Calm Calm - N/A   Clear
2:53 AM 42.8 °F - 32.0 °F 66% 30.21 in 10.0 mi Calm Calm - N/A   Clear
3:13 AM 42.8 °F 41.1 °F 32.0 °F 66% 30.21 in 10.0 mi West 3.5 mph - N/A   Clear
3:34 AM 42.8 °F - 32.0 °F 66% 30.21 in 10.0 mi Calm Calm - N/A   Clear
3:53 AM 42.8 °F - 32.0 °F 66% 30.21 in 10.0 mi Calm Calm - N/A   Clear
4:13 AM 41.0 °F - 32.0 °F 70% 30.21 in 10.0 mi Calm Calm - N/A   Clear
4:33 AM 41.0 °F - 32.0 °F 70% 30.21 in 10.0 mi Calm Calm - N/A   Clear
4:53 AM 41.0 °F 36.4 °F 33.8 °F 76% 30.21 in 10.0 mi West 6.9 mph - N/A   Clear
5:13 AM 42.8 °F - 33.8 °F 70% 30.22 in 10.0 mi Calm Calm - N/A   Clear
5:33 AM 42.8 °F 40.1 °F 32.0 °F 66% 30.22 in 10.0 mi West 4.6 mph - N/A   Clear
5:54 AM 42.8 °F - 33.8 °F 70% 30.22 in 10.0 mi Calm Calm - N/A   Clear
6:13 AM 39.2 °F - 33.8 °F 81% 30.22 in 10.0 mi Calm Calm - N/A   Clear
6:33 AM 41.0 °F - 33.8 °F 76% 30.23 in 10.0 mi Calm Calm - N/A   Clear
6:53 AM 42.8 °F 37.5 °F 33.8 °F 70% 30.23 in 10.0 mi West 9.2 mph - N/A   Clear
7:13 AM 42.8 °F - 33.8 °F 70% 30.23 in 10.0 mi Calm Calm - N/A   Clear
7:33 AM 42.8 °F - 33.8 °F 70% 30.24 in 10.0 mi Calm Calm - N/A   Clear
7:53 AM 41.0 °F 35.2 °F 33.8 °F 76% 30.24 in 10.0 mi West 9.2 mph - N/A   Clear
8:13 AM 42.8 °F - 35.6 °F 76% 30.25 in 10.0 mi Calm Calm - N/A   Clear
8:33 AM 42.8 °F - 35.6 °F 76% 30.26 in 10.0 mi Calm Calm - N/A   Clear
8:53 AM 44.6 °F - 35.6 °F 71% - 10.0 mi Calm Calm - N/A   Clear
9:13 AM 46.4 °F - 35.6 °F 66% - 10.0 mi Calm Calm - N/A   Clear
9:33 AM 46.4 °F - 35.6 °F 66% 30.27 in 10.0 mi Calm Calm - N/A   Clear
9:53 AM 48.2 °F - 35.6 °F 62% 30.27 in 10.0 mi Calm Calm - N/A   Clear
10:33 AM 53.6 °F - 35.6 °F 51% 30.27 in 10.0 mi Calm Calm - N/A   Clear
10:53 AM 55.4 °F - 37.4 °F 51% 30.27 in 10.0 mi WNW 3.5 mph - N/A   Clear
11:13 AM 55.4 °F - 37.4 °F 51% 30.27 in 10.0 mi Calm Calm - N/A   Clear
11:33 AM 57.2 °F - 37.4 °F 48% 30.27 in 10.0 mi Calm Calm - N/A   Clear
11:53 AM 57.2 °F - 37.4 °F 48% 30.28 in 10.0 mi Calm Calm - N/A   Clear
12:13 PM 59.0 °F - 33.8 °F 39% 30.27 in 10.0 mi Calm Calm - N/A   Clear
12:33 PM 60.8 °F - 28.4 °F 29% 30.27 in 10.0 mi NW 9.2 mph 16.1 mph N/A   Clear
12:53 PM 62.6 °F - 28.4 °F 27% 30.27 in 10.0 mi NW 8.1 mph 20.7 mph N/A   Clear
1:14 PM 60.8 °F - 28.4 °F 29% 30.27 in 10.0 mi Calm Calm - N/A   Clear
1:33 PM 62.6 °F - 26.6 °F 26% 30.26 in 10.0 mi West 10.4 mph 23.0 mph N/A   Clear
1:53 PM 62.6 °F - 26.6 °F 26% 30.26 in 10.0 mi Calm Calm - N/A   Clear
2:13 PM 60.8 °F - 28.4 °F 29% 30.25 in 10.0 mi NW 6.9 mph 19.6 mph N/A   Clear
2:33 PM 62.6 °F - 26.6 °F 26% 30.25 in 10.0 mi Calm Calm - N/A   Clear
2:53 PM 62.6 °F - 24.8 °F 24% 30.24 in 10.0 mi WNW 11.5 mph 21.9 mph N/A   Clear
3:13 PM 62.6 °F - 24.8 °F 24% 30.24 in 10.0 mi Calm Calm - N/A   Clear
3:33 PM 62.6 °F - 24.8 °F 24% 30.24 in 10.0 mi WNW 16.1 mph 19.6 mph N/A   Clear
3:53 PM 62.6 °F - 24.8 °F 24% 30.23 in 10.0 mi WNW 17.3 mph 20.7 mph N/A   Clear
4:13 PM 60.8 °F - 23.0 °F 23% 30.23 in 10.0 mi WNW 8.1 mph 24.2 mph N/A   Clear
4:33 PM 60.8 °F - 24.8 °F 25% 30.23 in 10.0 mi WNW 8.1 mph - N/A   Clear
4:53 PM 60.8 °F - 24.8 °F 25% 30.23 in 10.0 mi West 16.1 mph 20.7 mph N/A   Clear
5:13 PM 60.8 °F - 24.8 °F 25% 30.23 in 10.0 mi WNW 4.6 mph 20.7 mph N/A   Clear
5:33 PM 60.8 °F - 24.8 °F 25% 30.22 in 10.0 mi Calm Calm - N/A   Clear
5:53 PM 59.0 °F - 24.8 °F 27% 30.22 in 10.0 mi Calm Calm - N/A   Clear
6:13 PM 57.2 °F - 24.8 °F 29% 30.22 in 10.0 mi Calm Calm - N/A   Clear
6:33 PM 55.4 °F - 26.6 °F 33% 30.22 in 10.0 mi Calm Calm - N/A   Clear
6:53 PM 51.8 °F - 26.6 °F 38% 30.22 in 10.0 mi Calm Calm - N/A   Clear
7:13 PM 51.8 °F - 24.8 °F 35% 30.22 in 10.0 mi Calm Calm - N/A   Clear
7:33 PM 53.6 °F - 24.8 °F 33% 30.22 in 10.0 mi Calm Calm - N/A   Clear
7:53 PM 51.8 °F - 26.6 °F 38% 30.22 in 10.0 mi Calm Calm - N/A   Clear
8:14 PM 50.0 °F - 26.6 °F 40% 30.22 in 10.0 mi Calm Calm - N/A   Clear
8:33 PM 48.2 °F - 26.6 °F 43% 30.21 in 10.0 mi Calm Calm - N/A   Clear
9:13 PM 44.6 °F - 30.2 °F 57% 30.21 in 10.0 mi Calm Calm - N/A   Clear
9:33 PM 44.6 °F - 32.0 °F 61% 30.20 in 10.0 mi Calm Calm - N/A   Clear
9:53 PM 42.8 °F - 33.8 °F 70% 30.20 in 10.0 mi Calm Calm - N/A   Clear
10:13 PM 42.8 °F - 30.2 °F 61% 30.20 in 10.0 mi Calm Calm - N/A   Clear
10:34 PM 42.8 °F - 30.2 °F 61% 30.20 in 10.0 mi Calm Calm - N/A   Clear
10:53 PM 42.8 °F - 30.2 °F 61% 30.20 in 10.0 mi Calm Calm - N/A   Clear
11:13 PM 41.0 °F - 30.2 °F 65% 30.19 in 10.0 mi North - - N/A   Clear
11:33 PM 42.8 °F - 30.2 °F 61% 30.19 in 10.0 mi Calm Calm - N/A   Clear
11:53 PM 41.0 °F - 30.2 °F 65% 30.18 in 10.0 mi Calm Calm - N/A   Clear